createdAt,value
2023-03-05T00:01:35.230Z,3.69
2023-03-05T00:04:03.672Z,3.65
2023-03-05T00:06:31.022Z,3.60
2023-03-05T00:08:58.318Z,3.58
2023-03-05T00:11:27.991Z,3.55
2023-03-05T00:13:54.983Z,3.60
2023-03-05T00:16:22.427Z,3.55
2023-03-05T00:18:49.684Z,3.54
2023-03-05T00:21:22.347Z,3.52
2023-03-05T00:23:50.589Z,3.47
2023-03-05T00:26:18.980Z,3.41
2023-03-05T00:28:49.758Z,3.47
2023-03-05T00:31:17.822Z,3.43
2023-03-05T00:33:44.258Z,3.42
2023-03-05T00:36:11.022Z,3.43
2023-03-05T00:38:37.502Z,3.41
2023-03-05T00:41:04.147Z,3.47
2023-03-05T00:43:30.666Z,3.42
2023-03-05T00:45:57.023Z,3.39
2023-03-05T00:48:23.362Z,3.40
2023-03-05T00:50:49.746Z,3.37
2023-03-05T00:53:16.227Z,3.29
2023-03-05T00:55:42.564Z,3.29
2023-03-05T00:58:09.007Z,3.30
2023-03-05T01:00:35.472Z,3.29
2023-03-05T01:03:02.127Z,3.25
2023-03-05T01:05:28.712Z,3.24
2023-03-05T01:07:56.216Z,3.24
2023-03-05T01:10:26.480Z,3.27
2023-03-05T01:12:54.387Z,3.31
2023-03-05T01:15:21.431Z,3.26
2023-03-05T01:17:47.961Z,3.24
2023-03-05T01:20:16.504Z,3.26
2023-03-05T01:22:42.848Z,3.18
2023-03-05T01:25:09.947Z,3.18
2023-03-05T01:27:36.555Z,3.18
2023-03-05T01:30:03.407Z,3.16
2023-03-05T01:32:30.037Z,3.19
2023-03-05T01:34:56.421Z,3.17
2023-03-05T01:37:22.866Z,3.13
2023-03-05T01:39:49.217Z,3.10
2023-03-05T01:42:15.551Z,3.15
2023-03-05T01:45:00.530Z,3.03
2023-03-05T01:47:26.980Z,3.04
2023-03-05T01:49:54.343Z,2.94
2023-03-05T01:52:23.632Z,3.07
2023-03-05T01:54:54.472Z,3.05
2023-03-05T01:57:25.701Z,3.02
2023-03-05T01:59:56.576Z,3.02
2023-03-05T02:02:23.246Z,2.94
2023-03-05T02:04:54.693Z,2.96
2023-03-05T02:07:22.288Z,2.93
2023-03-05T02:09:48.819Z,2.95
2023-03-05T02:12:15.628Z,3.00
2023-03-05T02:14:46.557Z,2.95
2023-03-05T02:17:13.487Z,3.02
2023-03-05T02:20:17.229Z,3.01
2023-03-05T02:22:43.650Z,2.96
2023-03-05T02:25:15.550Z,2.97
2023-03-05T02:27:51.428Z,2.96
2023-03-05T02:30:18.228Z,3.02
2023-03-05T02:32:44.583Z,3.00
2023-03-05T02:35:11.193Z,2.93
2023-03-05T02:37:37.574Z,2.89
2023-03-05T02:40:05.834Z,2.92
2023-03-05T02:42:33.512Z,2.93
2023-03-05T02:45:01.802Z,2.92
2023-03-05T02:47:28.627Z,2.93
2023-03-05T02:49:56.279Z,2.91
2023-03-05T02:52:25.769Z,2.86
2023-03-05T02:54:52.863Z,2.84
2023-03-05T02:57:19.511Z,2.87
2023-03-05T02:59:46.997Z,2.89
2023-03-05T03:02:13.508Z,2.84
2023-03-05T03:04:39.929Z,2.86
2023-03-05T03:07:06.397Z,2.82
2023-03-05T03:09:35.222Z,2.84
2023-03-05T03:12:02.572Z,2.79
2023-03-05T03:14:38.938Z,2.75
2023-03-05T03:17:11.582Z,2.76
2023-03-05T03:19:39.200Z,2.74
2023-03-05T03:22:06.348Z,2.78
2023-03-05T03:24:33.839Z,2.81
2023-03-05T03:27:01.225Z,2.76
2023-03-05T03:29:28.078Z,2.71
2023-03-05T03:31:54.428Z,2.68
2023-03-05T03:34:21.358Z,2.71
2023-03-05T03:36:49.676Z,2.73
2023-03-05T03:39:16.781Z,2.66
2023-03-05T03:41:45.618Z,2.70
2023-03-05T03:44:13.045Z,2.68
2023-03-05T03:46:40.501Z,2.71
2023-03-05T03:49:10.672Z,2.68
2023-03-05T03:51:36.984Z,2.66
2023-03-05T03:54:03.423Z,2.71
2023-03-05T03:56:29.750Z,2.69
2023-03-05T03:58:56.063Z,2.65
2023-03-05T04:01:22.523Z,2.65
2023-03-05T04:03:49.004Z,2.68
2023-03-05T04:06:15.628Z,2.58
2023-03-05T04:08:41.988Z,2.64
2023-03-05T04:11:08.780Z,2.57
2023-03-05T04:13:35.189Z,2.51
2023-03-05T04:16:01.659Z,2.55
2023-03-05T04:18:28.232Z,2.52
2023-03-05T04:20:54.546Z,2.50
2023-03-05T04:23:21.124Z,2.51
2023-03-05T04:25:47.429Z,2.56
2023-03-05T04:28:13.821Z,2.52
2023-03-05T04:30:40.157Z,2.52
2023-03-05T04:33:06.633Z,2.52
2023-03-05T04:35:32.987Z,2.51
2023-03-05T04:37:59.358Z,2.53
2023-03-05T04:40:25.739Z,2.54
2023-03-05T04:42:52.053Z,2.54
2023-03-05T04:45:18.445Z,2.54
2023-03-05T04:47:44.852Z,2.59
2023-03-05T04:50:12.153Z,2.55
2023-03-05T04:52:44.304Z,2.51
2023-03-05T04:55:13.747Z,2.46
2023-03-05T04:57:40.143Z,2.53
2023-03-05T05:00:13.982Z,2.50
2023-03-05T05:02:48.236Z,2.55
2023-03-05T05:05:24.344Z,2.57
2023-03-05T05:07:55.170Z,2.51
2023-03-05T05:10:21.569Z,2.47
2023-03-05T05:12:48.012Z,2.46
2023-03-05T05:15:14.354Z,2.49
2023-03-05T05:17:40.791Z,2.53
2023-03-05T05:20:08.117Z,2.55
2023-03-05T05:22:35.091Z,2.49
2023-03-05T05:25:01.575Z,2.49
2023-03-05T05:27:27.977Z,2.43
2023-03-05T05:29:54.379Z,2.48
2023-03-05T05:32:24.017Z,2.42
2023-03-05T05:34:58.273Z,2.52
2023-03-05T05:37:26.004Z,2.49
2023-03-05T05:39:52.400Z,2.49
2023-03-05T05:42:21.168Z,2.48
2023-03-05T05:44:47.646Z,2.49
2023-03-05T05:47:16.048Z,2.44
2023-03-05T05:49:42.433Z,2.49
2023-03-05T05:52:08.846Z,2.49
2023-03-05T05:54:35.238Z,2.44
2023-03-05T05:57:01.654Z,2.49
2023-03-05T05:59:28.016Z,2.47
2023-03-05T06:01:54.395Z,2.46
2023-03-05T06:04:20.847Z,2.41
2023-03-05T06:06:47.160Z,2.45
2023-03-05T06:09:13.517Z,2.44
2023-03-05T06:11:39.998Z,2.42
2023-03-05T06:14:07.547Z,2.46
2023-03-05T06:16:34.837Z,2.48
2023-03-05T06:19:04.446Z,2.52
2023-03-05T06:21:33.253Z,2.49
2023-03-05T06:24:00.060Z,2.49
2023-03-05T06:26:26.519Z,2.53
2023-03-05T06:28:53.717Z,2.52
2023-03-05T06:31:22.797Z,2.55
2023-03-05T06:33:50.318Z,2.51
2023-03-05T06:36:19.174Z,2.60
2023-03-05T06:38:47.364Z,2.62
2023-03-05T06:41:17.759Z,2.59
2023-03-05T06:43:45.667Z,2.59
2023-03-05T06:46:18.488Z,2.59
2023-03-05T06:48:45.819Z,2.62
2023-03-05T06:51:14.075Z,2.65
2023-03-05T06:53:40.898Z,2.72
2023-03-05T06:56:07.260Z,2.70
2023-03-05T06:58:33.796Z,2.71
2023-03-05T07:01:00.247Z,2.70
2023-03-05T07:03:26.878Z,2.77
2023-03-05T07:05:53.246Z,2.72
2023-03-05T07:08:19.579Z,2.81
2023-03-05T07:10:45.910Z,2.79
2023-03-05T07:13:12.272Z,2.82
2023-03-05T07:15:40.365Z,2.83
2023-03-05T07:18:07.367Z,2.83
2023-03-05T07:20:35.610Z,2.75
2023-03-05T07:23:02.664Z,2.73
2023-03-05T07:25:29.142Z,2.76
2023-03-05T07:27:56.036Z,2.78
2023-03-05T07:30:22.435Z,2.79
2023-03-05T07:32:48.780Z,2.83
2023-03-05T07:35:15.218Z,2.84
2023-03-05T07:37:41.551Z,2.92
2023-03-05T07:40:09.039Z,2.90
2023-03-05T07:42:35.454Z,2.98
2023-03-05T07:45:13.021Z,3.06
2023-03-05T07:47:39.364Z,3.10
2023-03-05T07:50:06.368Z,3.09
2023-03-05T07:52:32.736Z,3.17
2023-03-05T07:54:59.107Z,3.17
2023-03-05T07:57:25.434Z,3.20
2023-03-05T07:59:51.828Z,3.23
2023-03-05T08:02:19.670Z,3.25
2023-03-05T08:04:46.064Z,3.20
2023-03-05T08:07:14.949Z,3.13
2023-03-05T08:09:42.730Z,3.05
2023-03-05T08:12:10.269Z,3.00
2023-03-05T08:14:37.530Z,2.97
2023-03-05T08:17:05.565Z,2.95
2023-03-05T08:19:33.082Z,2.98
2023-03-05T08:21:59.846Z,2.95
2023-03-05T08:24:29.491Z,2.92
2023-03-05T08:26:57.426Z,3.00
2023-03-05T08:29:24.719Z,3.03
2023-03-05T08:31:53.407Z,3.00
2023-03-05T08:34:20.814Z,3.05
2023-03-05T08:36:47.839Z,2.91
2023-03-05T08:39:14.610Z,2.94
2023-03-05T08:41:41.160Z,3.01
2023-03-05T08:44:07.573Z,2.84
2023-03-05T08:46:34.566Z,2.77
2023-03-05T08:49:01.182Z,2.82
2023-03-05T08:51:27.645Z,2.79
2023-03-05T08:53:55.868Z,2.92
2023-03-05T08:56:22.203Z,2.91
2023-03-05T08:58:48.616Z,2.93
2023-03-05T09:01:15.183Z,2.98
2023-03-05T09:03:41.679Z,2.96
2023-03-05T09:06:10.726Z,2.91
2023-03-05T09:08:37.101Z,2.87
2023-03-05T09:11:07.661Z,2.88
2023-03-05T09:13:34.703Z,3.01
2023-03-05T09:16:04.424Z,3.19
2023-03-05T09:18:32.036Z,3.28
2023-03-05T09:20:58.908Z,3.35
2023-03-05T09:23:25.257Z,3.46
2023-03-05T09:25:51.695Z,3.51
2023-03-05T09:28:18.177Z,3.62
2023-03-05T09:30:44.513Z,3.57
2023-03-05T09:33:11.120Z,3.67
2023-03-05T09:35:37.514Z,3.60
2023-03-05T09:38:04.590Z,3.56
2023-03-05T09:40:41.817Z,3.59
2023-03-05T09:43:22.366Z,3.54
2023-03-05T09:46:18.533Z,3.60
2023-03-05T09:48:52.070Z,3.67
2023-03-05T09:51:25.778Z,3.75
2023-03-05T09:54:17.226Z,3.78
2023-03-05T09:57:00.122Z,3.95
2023-03-05T09:59:38.876Z,4.04
2023-03-05T10:02:20.553Z,4.12
2023-03-05T10:04:57.634Z,4.12
2023-03-05T10:07:31.219Z,4.00
2023-03-05T10:10:01.019Z,3.97
2023-03-05T10:12:42.038Z,3.88
2023-03-05T10:15:13.804Z,4.00
2023-03-05T10:17:57.296Z,4.02
2023-03-05T10:20:35.659Z,4.05
2023-03-05T10:23:08.004Z,4.03
2023-03-05T10:25:52.133Z,3.88
2023-03-05T10:28:35.252Z,3.65
2023-03-05T10:31:15.103Z,3.44
2023-03-05T10:34:11.819Z,3.48
2023-03-05T10:37:16.196Z,3.58
2023-03-05T10:40:07.880Z,3.66
2023-03-05T10:42:45.163Z,3.80
2023-03-05T10:45:20.230Z,3.89
2023-03-05T10:47:52.353Z,3.96
2023-03-05T10:50:27.847Z,4.09
2023-03-05T10:53:29.580Z,4.13
2023-03-05T10:55:56.478Z,4.14
2023-03-05T10:58:25.077Z,4.16
2023-03-05T11:01:01.568Z,4.10
2023-03-05T11:03:52.121Z,4.02
2023-03-05T11:06:38.938Z,4.14
2023-03-05T11:09:18.979Z,4.19
2023-03-05T11:12:01.450Z,4.29
2023-03-05T11:14:33.320Z,4.34
2023-03-05T11:17:01.755Z,4.41
2023-03-05T11:19:35.202Z,4.22
2023-03-05T11:22:17.220Z,4.32
2023-03-05T11:24:46.550Z,4.28
2023-03-05T11:27:43.959Z,4.22
2023-03-05T11:30:37.139Z,4.23
2023-03-05T11:33:12.971Z,4.31
2023-03-05T11:35:41.906Z,4.42
2023-03-05T11:38:21.652Z,4.69
2023-03-05T11:40:49.183Z,4.68
2023-03-05T11:43:21.199Z,4.84
2023-03-05T11:45:51.916Z,5.01
2023-03-05T11:48:35.985Z,4.98
2023-03-05T11:51:16.235Z,5.12
2023-03-05T11:53:45.882Z,5.12
2023-03-05T11:56:21.473Z,5.01
2023-03-05T11:59:11.456Z,4.99
2023-03-05T12:01:45.291Z,4.84
2023-03-05T12:04:12.172Z,4.87
2023-03-05T12:06:48.473Z,4.95
2023-03-05T12:09:28.743Z,4.99
2023-03-05T12:12:04.212Z,5.04
2023-03-05T12:14:44.069Z,5.17
2023-03-05T12:17:40.928Z,5.24
2023-03-05T12:20:18.400Z,5.30
2023-03-05T12:22:45.458Z,5.48
2023-03-05T12:25:35.395Z,5.45
2023-03-05T12:28:02.909Z,5.57
2023-03-05T12:30:35.097Z,5.60
2023-03-05T12:33:08.011Z,5.58
2023-03-05T12:35:37.360Z,5.61
2023-03-05T12:38:30.045Z,5.72
2023-03-05T12:41:25.841Z,5.70
2023-03-05T12:44:05.480Z,5.52
2023-03-05T12:46:51.028Z,5.57
2023-03-05T12:49:20.483Z,5.58
2023-03-05T12:51:48.411Z,5.70
2023-03-05T12:54:29.191Z,5.76
2023-03-05T12:56:58.166Z,5.73
2023-03-05T12:59:29.710Z,5.72
2023-03-05T13:02:02.976Z,5.65
2023-03-05T13:04:32.943Z,5.67
2023-03-05T13:07:05.684Z,5.57
2023-03-05T13:09:36.111Z,5.71
2023-03-05T13:12:04.927Z,5.84
2023-03-05T13:14:41.817Z,5.98
2023-03-05T13:17:52.477Z,5.94
2023-03-05T13:20:39.646Z,5.96
2023-03-05T13:23:18.575Z,5.92
2023-03-05T13:25:55.555Z,5.97
2023-03-05T13:28:21.895Z,5.99
2023-03-05T13:30:53.562Z,5.94
2023-03-05T13:33:27.973Z,5.93
2023-03-05T13:35:54.817Z,5.97
2023-03-05T13:38:38.645Z,5.88
2023-03-05T13:41:11.214Z,5.99
2023-03-05T13:43:48.594Z,6.05
2023-03-05T13:46:23.625Z,6.03
2023-03-05T13:48:50.030Z,6.19
2023-03-05T13:51:16.767Z,6.41
2023-03-05T13:53:43.771Z,6.48
2023-03-05T13:56:15.722Z,6.13
2023-03-05T13:58:56.383Z,6.04
2023-03-05T14:01:29.890Z,5.85
2023-03-05T14:04:04.119Z,5.94
2023-03-05T14:06:30.911Z,5.83
2023-03-05T14:09:22.522Z,6.10
2023-03-05T14:11:54.487Z,6.25
2023-03-05T14:14:23.118Z,6.27
2023-03-05T14:16:49.542Z,6.20
2023-03-05T14:19:42.177Z,6.17
2023-03-05T14:22:32.870Z,6.19
2023-03-05T14:24:59.367Z,6.09
2023-03-05T14:27:25.920Z,6.01
2023-03-05T14:29:52.584Z,5.83
2023-03-05T14:32:49.447Z,5.83
2023-03-05T14:35:35.226Z,5.77
2023-03-05T14:38:01.945Z,5.67
2023-03-05T14:40:33.995Z,5.75
2023-03-05T14:43:10.395Z,5.66
2023-03-05T14:45:39.178Z,5.63
2023-03-05T14:48:07.599Z,5.66
2023-03-05T14:50:51.523Z,5.60
2023-03-05T14:53:22.009Z,5.67
2023-03-05T14:55:51.254Z,5.70
2023-03-05T14:58:21.564Z,5.66
2023-03-05T15:00:50.977Z,5.72
2023-03-05T15:03:18.363Z,5.72
2023-03-05T15:05:47.246Z,5.81
2023-03-05T15:08:26.921Z,5.75
2023-03-05T15:10:53.791Z,5.79
2023-03-05T15:13:21.431Z,5.82
2023-03-05T15:15:49.117Z,5.89
2023-03-05T15:18:18.545Z,5.78
2023-03-05T15:20:45.464Z,5.65
2023-03-05T15:23:12.822Z,5.57
2023-03-05T15:25:39.857Z,5.54
2023-03-05T15:28:06.207Z,5.46
2023-03-05T15:30:39.607Z,5.49
2023-03-05T15:33:09.259Z,5.52
2023-03-05T15:35:35.789Z,5.53
2023-03-05T15:38:02.233Z,5.44
2023-03-05T15:40:28.897Z,5.47
2023-03-05T15:42:56.400Z,5.46
2023-03-05T15:45:23.402Z,5.42
2023-03-05T15:47:51.015Z,5.39
2023-03-05T15:50:18.089Z,5.32
2023-03-05T15:52:44.516Z,5.28
2023-03-05T15:55:11.867Z,5.33
2023-03-05T15:57:42.815Z,5.27
2023-03-05T16:00:10.465Z,5.22
2023-03-05T16:02:37.091Z,5.22
2023-03-05T16:05:04.120Z,5.15
2023-03-05T16:07:32.941Z,5.13
2023-03-05T16:09:59.771Z,5.13
2023-03-05T16:12:31.046Z,5.13
2023-03-05T16:14:57.487Z,5.14
2023-03-05T16:17:24.070Z,5.07
2023-03-05T16:19:54.934Z,5.05
2023-03-05T16:22:21.387Z,4.97
2023-03-05T16:24:47.770Z,5.00
2023-03-05T16:27:14.114Z,4.99
2023-03-05T16:29:40.483Z,4.90
2023-03-05T16:32:07.147Z,4.94
2023-03-05T16:34:34.337Z,4.96
2023-03-05T16:37:03.752Z,4.83
2023-03-05T16:39:30.351Z,4.92
2023-03-05T16:41:57.671Z,4.88
2023-03-05T16:44:24.070Z,4.81
2023-03-05T16:46:53.559Z,4.82
2023-03-05T16:49:20.939Z,4.81
2023-03-05T16:51:47.363Z,4.86
2023-03-05T16:54:13.946Z,4.78
2023-03-05T16:56:40.276Z,4.74
2023-03-05T16:59:06.659Z,4.75
2023-03-05T17:01:33.118Z,4.78
2023-03-05T17:04:00.160Z,4.78
2023-03-05T17:06:29.314Z,4.78
2023-03-05T17:08:56.242Z,4.69
2023-03-05T17:11:22.825Z,4.74
2023-03-05T17:13:49.339Z,4.70
2023-03-05T17:16:18.137Z,4.81
2023-03-05T17:18:45.058Z,4.78
2023-03-05T17:21:11.759Z,4.81
2023-03-05T17:23:38.886Z,4.80
2023-03-05T17:26:07.284Z,4.72
2023-03-05T17:28:33.723Z,4.68
2023-03-05T17:31:01.328Z,4.67
2023-03-05T17:33:28.835Z,4.67
2023-03-05T17:35:55.288Z,4.62
2023-03-05T17:38:21.783Z,4.54
2023-03-05T17:40:48.974Z,4.54
2023-03-05T17:43:15.423Z,4.57
2023-03-05T17:45:42.676Z,4.56
2023-03-05T17:48:10.322Z,4.51
2023-03-05T17:50:36.707Z,4.45
2023-03-05T17:53:03.621Z,4.54
2023-03-05T17:55:30.648Z,4.50
2023-03-05T17:57:58.470Z,4.47
2023-03-05T18:00:27.837Z,4.52
2023-03-05T18:02:54.880Z,4.51
2023-03-05T18:05:23.248Z,4.47
2023-03-05T18:07:50.434Z,4.39
2023-03-05T18:10:19.730Z,4.29
2023-03-05T18:12:46.938Z,4.28
2023-03-05T18:15:15.856Z,4.24
2023-03-05T18:17:42.896Z,4.20
2023-03-05T18:20:31.062Z,4.07
2023-03-05T18:22:58.901Z,4.03
2023-03-05T18:25:30.713Z,3.98
2023-03-05T18:28:02.265Z,4.02
2023-03-05T18:30:30.105Z,3.97
2023-03-05T18:32:56.745Z,3.97
2023-03-05T18:35:23.802Z,3.93
2023-03-05T18:37:50.438Z,3.91
2023-03-05T18:40:21.385Z,3.88
2023-03-05T18:42:48.038Z,3.87
2023-03-05T18:45:15.841Z,3.87
2023-03-05T18:47:43.273Z,3.87
2023-03-05T18:50:14.564Z,3.86
2023-03-05T18:52:42.199Z,3.86
2023-03-05T18:55:14.874Z,3.87
2023-03-05T18:57:41.228Z,3.85
2023-03-05T19:00:08.788Z,3.83
2023-03-05T19:02:35.110Z,3.84
2023-03-05T19:05:02.627Z,3.80
2023-03-05T19:07:29.736Z,3.53
2023-03-05T19:09:59.654Z,3.17
2023-03-05T19:12:34.939Z,3.04
2023-03-05T19:15:02.415Z,2.95
2023-03-05T19:17:30.647Z,2.86
2023-03-05T19:19:59.469Z,2.80
2023-03-05T19:22:27.246Z,2.79
2023-03-05T19:24:54.027Z,2.80
2023-03-05T19:27:20.468Z,2.76
2023-03-05T19:29:47.104Z,2.79
2023-03-05T19:32:17.288Z,2.76
2023-03-05T19:34:47.477Z,2.75
2023-03-05T19:37:14.409Z,2.74
2023-03-05T19:39:41.734Z,2.72
2023-03-05T19:42:08.246Z,2.70
2023-03-05T19:44:34.853Z,2.70
2023-03-05T19:47:01.277Z,2.71
2023-03-05T19:49:27.748Z,2.70
2023-03-05T19:51:54.142Z,2.73
2023-03-05T19:54:21.865Z,2.72
2023-03-05T19:56:49.155Z,2.70
2023-03-05T19:59:20.470Z,2.72
2023-03-05T20:01:48.234Z,2.69
2023-03-05T20:04:18.318Z,2.69
2023-03-05T20:06:44.957Z,2.66
2023-03-05T20:09:11.734Z,2.65
2023-03-05T20:11:38.651Z,2.74
2023-03-05T20:14:05.358Z,2.66
2023-03-05T20:16:35.077Z,2.71
2023-03-05T20:19:03.631Z,2.82
2023-03-05T20:21:33.778Z,2.89
2023-03-05T20:24:03.832Z,2.92
2023-03-05T20:26:32.742Z,2.93
2023-03-05T20:28:59.249Z,2.97
2023-03-05T20:31:26.832Z,3.01
2023-03-05T20:33:54.066Z,3.00
2023-03-05T20:36:20.495Z,2.97
2023-03-05T20:38:46.943Z,2.93
2023-03-05T20:41:16.451Z,2.95
2023-03-05T20:43:46.194Z,2.97
2023-03-05T20:46:20.129Z,2.96
2023-03-05T20:48:49.301Z,3.00
2023-03-05T20:51:19.065Z,2.97
2023-03-05T20:53:45.489Z,3.02
2023-03-05T20:56:11.959Z,3.03
2023-03-05T20:58:38.927Z,3.07
2023-03-05T21:01:05.726Z,3.09
2023-03-05T21:03:32.204Z,3.13
2023-03-05T21:05:58.658Z,3.12
2023-03-05T21:08:25.039Z,3.09
2023-03-05T21:10:51.596Z,3.05
2023-03-05T21:13:18.157Z,3.10
2023-03-05T21:15:44.628Z,3.14
2023-03-05T21:18:11.080Z,3.14
2023-03-05T21:20:37.484Z,3.17
2023-03-05T21:23:03.946Z,3.14
2023-03-05T21:25:32.206Z,3.18
2023-03-05T21:28:06.458Z,3.12
2023-03-05T21:30:35.784Z,3.19
2023-03-05T21:33:07.236Z,3.20
2023-03-05T21:35:34.768Z,3.29
2023-03-05T21:38:02.592Z,3.25
2023-03-05T21:40:29.370Z,3.23
2023-03-05T21:42:55.994Z,3.29
2023-03-05T21:45:25.350Z,3.31
2023-03-05T21:47:52.759Z,3.35
2023-03-05T21:50:23.740Z,3.39
2023-03-05T21:52:50.264Z,3.39
2023-03-05T21:55:19.815Z,3.38
2023-03-05T21:57:46.453Z,3.42
2023-03-05T22:00:13.445Z,3.35
2023-03-05T22:02:41.349Z,3.37
2023-03-05T22:05:12.524Z,3.41
2023-03-05T22:07:39.714Z,3.35
2023-03-05T22:10:06.871Z,3.39
2023-03-05T22:13:06.802Z,3.37
2023-03-05T22:15:33.795Z,3.39
2023-03-05T22:18:00.435Z,3.34
2023-03-05T22:20:26.829Z,3.32
2023-03-05T22:22:53.182Z,3.38
2023-03-05T22:25:19.668Z,3.38
2023-03-05T22:27:46.014Z,3.35
2023-03-05T22:30:13.019Z,3.37
2023-03-05T22:32:39.491Z,3.31
2023-03-05T22:35:07.579Z,3.30
2023-03-05T22:37:33.962Z,3.29
2023-03-05T22:40:00.404Z,3.24
2023-03-05T22:42:26.958Z,3.25
2023-03-05T22:44:57.676Z,3.29
2023-03-05T22:47:25.375Z,3.23
2023-03-05T22:49:51.821Z,3.25
2023-03-05T22:52:18.396Z,3.21
2023-03-05T22:54:44.846Z,3.24
2023-03-05T22:57:11.485Z,3.24
2023-03-05T22:59:37.826Z,3.27
2023-03-05T23:02:04.407Z,3.25
2023-03-05T23:04:59.989Z,3.28
2023-03-05T23:07:32.818Z,3.24
2023-03-05T23:10:06.527Z,3.26
2023-03-05T23:12:35.508Z,3.24
2023-03-05T23:15:04.771Z,3.08
2023-03-05T23:17:31.164Z,2.95
2023-03-05T23:19:57.543Z,2.97
2023-03-05T23:22:23.889Z,2.83
2023-03-05T23:24:50.263Z,2.83
2023-03-05T23:27:20.237Z,2.81
2023-03-05T23:30:21.950Z,2.75
2023-03-05T23:32:53.122Z,2.73
2023-03-05T23:35:29.325Z,2.72
2023-03-05T23:37:57.588Z,2.75
2023-03-05T23:40:30.548Z,2.84
2023-03-05T23:42:57.496Z,2.79
2023-03-05T23:45:24.868Z,2.76
2023-03-05T23:47:52.903Z,2.77
2023-03-05T23:50:25.631Z,2.83
2023-03-05T23:52:54.255Z,2.81
2023-03-05T23:55:24.330Z,2.76
2023-03-05T23:57:51.394Z,2.75
